Time;durP1;ratioP1;P1;durP2;ratioP2;P2;SDS_P1;SDS_P2;PMS_P1;PMS_P2;Temp;Humidity;BMP_temperature;BMP_pressure;BME280_temperature;BME280_humidity;BME280_pressure;Samples;Min_cycle;Max_cycle;Signal;HPM_P1;HPM_P2
2021/06/17 00:01:26;;;;;;;8.77;7.30;;;;;;;-139.48;100.00;61774.03;5078021;28;20302;-67
2021/06/17 00:04:10;;;;;;;8.30;7.45;;;;;;;-139.48;100.00;61774.03;5078042;28;20058;-68
2021/06/17 00:06:54;;;;;;;10.00;8.07;;;;;;;-139.48;100.00;61774.03;5078122;28;20066;-67
2021/06/17 00:09:38;;;;;;;9.02;8.13;;;;;;;-139.48;100.00;61774.03;5063919;28;20503;-68
2021/06/17 00:12:23;;;;;;;10.85;7.97;;;;;;;-139.48;100.00;61774.03;5080303;28;20043;-67
2021/06/17 00:15:09;;;;;;;10.68;8.32;;;;;;;-139.48;100.00;61774.03;5067518;28;20494;-68
2021/06/17 00:17:53;;;;;;;9.27;8.35;;;;;;;-139.48;100.00;61774.03;5081983;28;20086;-67
2021/06/17 00:20:38;;;;;;;9.77;8.77;;;;;;;-139.48;100.00;61774.03;5081589;28;20470;-68
2021/06/17 00:23:22;;;;;;;9.80;8.55;;;;;;;-139.48;100.00;61774.03;5067667;28;20078;-68
2021/06/17 00:26:06;;;;;;;11.73;8.63;;;;;;;-139.48;100.00;61774.03;5081684;28;20046;-68
2021/06/17 00:28:50;;;;;;;12.15;8.60;;;;;;;-139.48;100.00;61774.03;5081720;28;20092;-68
2021/06/17 00:31:34;;;;;;;12.15;8.13;;;;;;;-139.48;100.00;61774.03;5081670;28;20096;-68
2021/06/17 00:34:18;;;;;;;9.52;8.52;;;;;;;-139.48;100.00;61774.03;5067458;28;20145;-68
2021/06/17 00:37:02;;;;;;;11.82;8.48;;;;;;;-139.48;100.00;61774.03;5067328;28;20098;-68
2021/06/17 00:39:46;;;;;;;13.95;8.50;;;;;;;-139.48;100.00;61774.03;5096894;28;20051;-68
2021/06/17 00:42:30;;;;;;;12.13;8.35;;;;;;;-139.48;100.00;61774.03;5096848;28;20508;-68
2021/06/17 00:45:19;;;;;;;11.00;8.55;;;;;;;-139.48;100.00;61774.03;5067101;28;20130;-67
2021/06/17 00:48:04;;;;;;;9.18;8.27;;;;;;;-139.48;100.00;61774.03;5067012;28;20157;-67
2021/06/17 00:50:55;;;;;;;10.38;8.07;;;;;;;-139.48;100.00;61774.03;5081601;28;20097;-68
2021/06/17 00:53:39;;;;;;;11.40;9.15;;;;;;;-139.48;100.00;61774.03;5080967;28;20047;-68
2021/06/17 00:56:24;;;;;;;10.02;8.45;;;;;;;-139.48;100.00;61774.03;5067308;28;20403;-67
2021/06/17 00:59:08;;;;;;;11.02;9.07;;;;;;;-139.48;100.00;61774.03;5081042;28;20047;-68
2021/06/17 01:01:52;;;;;;;9.02;8.13;;;;;;;-139.48;100.00;61774.03;5081040;28;20089;-68
2021/06/17 01:04:36;;;;;;;11.02;9.93;;;;;;;-139.48;100.00;61774.03;5096499;28;20062;-67
2021/06/17 01:07:44;;;;;;;10.70;8.57;;;;;;;-139.48;100.00;61774.03;5081045;28;20105;-68
2021/06/17 01:11:02;;;;;;;11.60;9.13;;;;;;;-139.48;100.00;61774.03;5066736;28;20118;-67
2021/06/17 01:13:50;;;;;;;9.82;8.75;;;;;;;-139.48;100.00;61774.03;5095948;28;20046;-68
2021/06/17 01:16:45;;;;;;;10.10;8.43;;;;;;;-139.48;100.00;61774.03;5096231;28;20094;-68
2021/06/17 01:19:31;;;;;;;10.40;8.63;;;;;;;-139.48;100.00;61774.03;5081043;28;20055;-67
2021/06/17 01:22:29;;;;;;;12.00;8.93;;;;;;;-139.48;100.00;61774.03;5080170;28;20118;-67
2021/06/17 01:25:25;;;;;;;9.68;8.75;;;;;;;-139.48;100.00;61774.03;5080595;28;20047;-67
2021/06/17 01:28:13;;;;;;;12.00;9.18;;;;;;;-139.48;100.00;61774.03;5066150;28;20615;-67
2021/06/17 01:31:01;;;;;;;9.93;8.20;;;;;;;-139.48;100.00;61774.03;5080559;28;20412;-68
2021/06/17 01:33:47;;;;;;;11.65;8.73;;;;;;;-139.48;100.00;61774.03;5095744;28;20059;-68
2021/06/17 01:36:37;;;;;;;10.75;8.85;;;;;;;-139.48;100.00;61774.03;5080388;28;20085;-68
2021/06/17 01:39:22;;;;;;;10.05;8.60;;;;;;;-139.48;100.00;61774.03;5066293;28;20519;-67
2021/06/17 01:42:08;;;;;;;11.52;8.40;;;;;;;-139.48;100.00;61774.03;5080262;28;20047;-67
2021/06/17 01:44:57;;;;;;;10.68;7.45;;;;;;;-139.48;100.00;61774.03;5066057;28;20579;-68
2021/06/17 01:47:41;;;;;;;9.57;8.50;;;;;;;-139.48;100.00;61774.03;5080237;28;20451;-67
2021/06/17 01:50:27;;;;;;;10.65;8.73;;;;;;;-139.48;100.00;61774.03;5080164;28;20109;-65
2021/06/17 01:53:14;;;;;;;10.45;8.30;;;;;;;-139.48;100.00;61774.03;5065914;28;20097;-68
2021/06/17 01:55:58;;;;;;;10.10;8.18;;;;;;;-139.48;100.00;61774.03;5079885;28;20067;-67
2021/06/17 01:58:45;;;;;;;10.30;7.90;;;;;;;-139.48;100.00;61774.03;5079890;28;20520;-67
2021/06/17 02:01:31;;;;;;;15.57;8.10;;;;;;;-139.48;100.00;61774.03;5080018;28;20408;-67
2021/06/17 02:04:18;;;;;;;8.23;7.30;;;;;;;-139.48;100.00;61774.03;5065777;28;20058;-69
2021/06/17 02:07:03;;;;;;;9.18;7.90;;;;;;;-139.48;100.00;61774.03;5079965;28;20047;-67
2021/06/17 02:09:50;;;;;;;10.52;8.15;;;;;;;-139.48;100.00;61774.03;5065670;28;20058;-68
2021/06/17 02:12:34;;;;;;;9.20;8.30;;;;;;;-139.48;100.00;61774.03;5079534;28;20477;-67
2021/06/17 02:15:19;;;;;;;9.60;7.25;;;;;;;-139.48;100.00;61774.03;5079322;28;20054;-68
2021/06/17 02:18:03;;;;;;;8.10;7.30;;;;;;;-139.48;100.00;61774.03;5079733;28;20046;-68
2021/06/17 02:20:47;;;;;;;8.40;7.63;;;;;;;-139.48;100.00;61774.03;5079322;28;20067;-68
2021/06/17 02:23:32;;;;;;;9.45;7.97;;;;;;;-139.48;100.00;61774.03;5094780;28;20046;-68
2021/06/17 02:26:17;;;;;;;10.73;7.35;;;;;;;-139.48;100.00;61774.03;5079155;28;20086;-66
2021/06/17 02:29:01;;;;;;;10.75;7.55;;;;;;;-139.48;100.00;61774.03;5079456;28;20520;-68
2021/06/17 02:31:48;;;;;;;13.00;7.97;;;;;;;-139.48;100.00;61774.03;5079237;28;20515;-68
2021/06/17 02:34:32;;;;;;;9.00;8.18;;;;;;;-139.48;100.00;61774.03;5078845;28;20089;-68
2021/06/17 02:37:18;;;;;;;8.35;7.47;;;;;;;-139.48;100.00;61774.03;5079274;28;20127;-68
2021/06/17 02:40:04;;;;;;;10.32;8.23;;;;;;;-139.48;100.00;61774.03;5094521;28;20100;-68
2021/06/17 02:42:51;;;;;;;11.40;7.72;;;;;;;-139.48;100.00;61774.03;5079238;28;20047;-67
2021/06/17 02:45:35;;;;;;;10.90;7.53;;;;;;;-139.48;100.00;61774.03;5064988;28;20063;-68
2021/06/17 02:48:18;;;;;;;13.00;8.32;;;;;;;-139.48;100.00;61774.03;5078994;28;20047;-67
2021/06/17 02:51:03;;;;;;;11.60;7.88;;;;;;;-139.48;100.00;61774.03;5078690;28;20138;-67
2021/06/17 02:53:48;;;;;;;11.48;8.00;;;;;;;-139.48;100.00;61774.03;5078959;28;20554;-68
2021/06/17 02:56:53;;;;;;;8.65;7.80;;;;;;;-139.48;100.00;61774.03;5078931;28;20116;-68
2021/06/17 02:59:44;;;;;;;12.32;7.65;;;;;;;-139.48;100.00;61774.03;5094214;28;20043;-67
2021/06/17 03:02:36;;;;;;;8.60;7.72;;;;;;;-139.48;100.00;61774.03;5094363;28;20109;-67
2021/06/17 03:05:26;;;;;;;9.15;7.25;;;;;;;-139.48;100.00;61774.03;5078922;28;20042;-68
2021/06/17 03:08:17;;;;;;;8.80;7.43;;;;;;;-139.48;100.00;61774.03;5078704;28;20495;-67
2021/06/17 03:11:06;;;;;;;10.45;8.50;;;;;;;-139.48;100.00;61774.03;5078833;28;20047;-67
2021/06/17 03:13:56;;;;;;;9.90;7.82;;;;;;;-139.48;100.00;61774.03;5078466;28;20058;-65
2021/06/17 03:16:41;;;;;;;11.32;7.95;;;;;;;-139.48;100.00;61774.03;5110408;22;20447;-70
2021/06/17 03:19:26;;;;;;;9.35;7.60;;;;;;;-139.48;100.00;61774.03;5078542;28;20082;-68
2021/06/17 03:22:12;;;;;;;10.77;7.60;;;;;;;-139.48;100.00;61774.03;5092764;28;20081;-70
2021/06/17 03:24:59;;;;;;;9.55;7.10;;;;;;;-139.48;100.00;61774.03;5092672;28;20063;-69
2021/06/17 03:27:43;;;;;;;10.07;8.45;;;;;;;-139.48;100.00;61774.03;5092468;28;20050;-70
2021/06/17 03:30:29;;;;;;;9.38;8.10;;;;;;;-139.48;100.00;61774.03;5092649;28;20116;-70
2021/06/17 03:33:17;;;;;;;8.90;7.68;;;;;;;-139.48;100.00;61774.03;5092638;28;20051;-70
2021/06/17 03:36:02;;;;;;;8.23;7.43;;;;;;;-139.48;100.00;61774.03;5092529;28;20550;-70
2021/06/17 03:38:47;;;;;;;10.30;7.40;;;;;;;-139.48;100.00;61774.03;5077998;28;20089;-70
2021/06/17 03:41:31;;;;;;;7.85;7.05;;;;;;;-139.48;100.00;61774.03;5092242;28;20093;-70
2021/06/17 03:44:16;;;;;;;11.25;7.30;;;;;;;-139.48;100.00;61774.03;5092515;28;20093;-70
2021/06/17 03:47:00;;;;;;;8.70;7.45;;;;;;;-139.48;100.00;61774.03;5077457;28;20127;-70
2021/06/17 03:49:44;;;;;;;10.05;7.10;;;;;;;-139.48;100.00;61774.03;5093417;28;20518;-70
2021/06/17 03:52:29;;;;;;;8.85;7.25;;;;;;;-139.48;100.00;61774.03;5092336;28;20173;-70
2021/06/17 03:55:17;;;;;;;10.82;7.60;;;;;;;-139.48;100.00;61774.03;5078233;28;20135;-70
2021/06/17 03:58:01;;;;;;;8.00;7.20;;;;;;;-139.48;100.00;61774.03;5092346;28;20047;-70
2021/06/17 04:00:45;;;;;;;8.68;6.95;;;;;;;-139.48;100.00;61774.03;5092272;28;20198;-70
2021/06/17 04:03:29;;;;;;;10.02;7.68;;;;;;;-139.48;100.00;61774.03;5077944;28;20086;-69
2021/06/17 04:06:16;;;;;;;8.70;7.68;;;;;;;-139.48;100.00;61774.03;5092466;28;20093;-70
2021/06/17 04:09:02;;;;;;;10.52;7.28;;;;;;;-139.48;100.00;61774.03;5092071;28;20133;-70
2021/06/17 04:11:46;;;;;;;7.30;6.60;;;;;;;-139.48;100.00;61774.03;5092216;28;20051;-70
2021/06/17 04:14:31;;;;;;;9.35;7.90;;;;;;;-139.48;100.00;61774.03;5093246;28;20067;-70
2021/06/17 04:17:18;;;;;;;10.48;8.18;;;;;;;-139.48;100.00;61774.03;5077705;28;20082;-70
2021/06/17 04:20:04;;;;;;;8.98;7.55;;;;;;;-139.48;100.00;61774.03;5091884;28;20051;-69
2021/06/17 04:22:48;;;;;;;9.93;7.45;;;;;;;-139.48;100.00;61774.03;5092371;28;20047;-70
2021/06/17 04:25:33;;;;;;;11.25;7.00;;;;;;;-139.48;100.00;61774.03;5091843;28;20096;-70
2021/06/17 04:28:19;;;;;;;9.80;7.82;;;;;;;-139.48;100.00;61774.03;5091891;28;20047;-70
2021/06/17 04:31:04;;;;;;;12.80;7.20;;;;;;;-139.48;100.00;61774.03;5091970;28;20047;-70
2021/06/17 04:33:48;;;;;;;9.77;7.05;;;;;;;-139.48;100.00;61774.03;5077511;28;20047;-70
2021/06/17 04:36:32;;;;;;;7.80;7.00;;;;;;;-139.48;100.00;61774.03;5077410;28;20474;-69
2021/06/17 04:39:16;;;;;;;10.70;6.93;;;;;;;-139.48;100.00;61774.03;5077705;28;20412;-70
2021/06/17 04:42:00;;;;;;;7.55;6.82;;;;;;;-139.48;100.00;61774.03;5077591;28;20093;-70
2021/06/17 04:44:45;;;;;;;13.32;7.45;;;;;;;-139.48;100.00;61774.03;5091966;28;20055;-69
2021/06/17 04:47:30;;;;;;;9.43;6.82;;;;;;;-139.48;100.00;61774.03;5091662;28;20127;-69
2021/06/17 04:50:14;;;;;;;8.07;7.15;;;;;;;-139.48;100.00;61774.03;5092143;28;20051;-69
2021/06/17 04:52:57;;;;;;;8.02;7.18;;;;;;;-139.48;100.00;61774.03;5077235;28;20057;-70
2021/06/17 04:56:00;;;;;;;11.18;8.35;;;;;;;-139.48;100.00;61774.03;5092664;28;20131;-70
2021/06/17 04:58:47;;;;;;;12.20;7.90;;;;;;;-139.48;100.00;61774.03;5094872;28;20047;-69
2021/06/17 05:01:31;;;;;;;8.38;7.25;;;;;;;-139.48;100.00;61774.03;5094700;28;20475;-69
2021/06/17 05:04:17;;;;;;;8.07;7.05;;;;;;;-139.48;100.00;61774.03;5094711;28;20104;-69
2021/06/17 05:12:52;;;;;;;7.40;6.40;;;;;;;-139.48;100.00;61774.03;5094598;28;20181;-69
2021/06/17 05:15:36;;;;;;;;;;;;;;;-139.48;100.00;61774.03;5094435;28;20050;-70
2021/06/17 05:18:22;;;;;;;11.18;7.35;;;;;;;-139.48;100.00;61774.03;5094159;28;20459;-70
2021/06/17 05:21:07;;;;;;;7.78;6.97;;;;;;;-139.48;100.00;61774.03;5094152;28;20047;-70
2021/06/17 05:23:50;;;;;;;7.85;6.47;;;;;;;-139.48;100.00;61774.03;5095329;28;20100;-70
2021/06/17 05:26:36;;;;;;;9.55;7.65;;;;;;;-139.48;100.00;61774.03;5079813;28;20058;-69
2021/06/17 05:29:20;;;;;;;8.65;6.85;;;;;;;-139.48;100.00;61774.03;5094098;28;20047;-70
2021/06/17 05:32:04;;;;;;;8.45;6.97;;;;;;;-139.48;100.00;61774.03;5093947;28;20127;-70
2021/06/17 05:34:48;;;;;;;9.55;7.03;;;;;;;-139.48;100.00;61774.03;5095079;28;20044;-69
2021/06/17 05:37:32;;;;;;;8.50;6.88;;;;;;;-139.48;100.00;61774.03;5079622;28;20193;-69
2021/06/17 05:40:16;;;;;;;8.95;7.18;;;;;;;-139.48;100.00;61774.03;5093938;28;20127;-70
2021/06/17 05:43:01;;;;;;;9.60;7.57;;;;;;;-139.48;100.00;61774.03;5094954;28;20047;-70
2021/06/17 05:45:45;;;;;;;9.77;7.88;;;;;;;-139.48;100.00;61774.03;5080484;28;20051;-69
2021/06/17 05:48:30;;;;;;;8.10;7.30;;;;;;;-139.48;100.00;61774.03;5094305;28;20109;-70
2021/06/17 05:51:14;;;;;;;11.32;7.65;;;;;;;-139.48;100.00;61774.03;5080340;28;20055;-70
2021/06/17 05:54:00;;;;;;;10.55;6.72;;;;;;;-139.48;100.00;61774.03;5079895;28;20071;-69
2021/06/17 05:56:45;;;;;;;10.02;7.20;;;;;;;-139.48;100.00;61774.03;5094003;28;20468;-69
2021/06/17 05:59:28;;;;;;;8.90;7.20;;;;;;;-139.48;100.00;61774.03;5080000;28;20116;-70
2021/06/17 06:02:12;;;;;;;12.43;6.93;;;;;;;-139.48;100.00;61774.03;5094061;28;20066;-69
2021/06/17 06:04:56;;;;;;;11.98;7.88;;;;;;;-139.48;100.00;61774.03;5095074;28;20054;-69
2021/06/17 06:07:40;;;;;;;11.52;7.72;;;;;;;-139.48;100.00;61774.03;5094933;28;20105;-70
2021/06/17 06:10:24;;;;;;;;;;;;;;;-139.48;100.00;61774.03;5094523;28;20047;-70
2021/06/17 06:13:08;;;;;;;11.87;8.53;;;;;;;-139.48;100.00;61774.03;5093644;28;19923;-69
2021/06/17 06:15:52;;;;;;;12.35;7.78;;;;;;;-139.48;100.00;61774.03;5079269;28;20654;-70
2021/06/17 06:18:36;;;;;;;10.27;7.95;;;;;;;-139.48;100.00;61774.03;5079867;28;20050;-70
2021/06/17 06:21:20;;;;;;;13.95;8.52;;;;;;;-139.48;100.00;61774.03;5093625;28;20074;-69
2021/06/17 06:24:04;;;;;;;8.02;7.25;;;;;;;-139.48;100.00;61774.03;5093758;28;20475;-70
2021/06/17 06:26:48;;;;;;;9.68;8.63;;;;;;;-139.48;100.00;61774.03;5078504;28;20086;-70
2021/06/17 06:29:33;;;;;;;12.25;8.18;;;;;;;-139.48;100.00;61774.03;5093535;28;20404;-70
2021/06/17 06:32:17;;;;;;;10.65;9.52;;;;;;;-139.48;100.00;61774.03;5093336;28;20047;-70
2021/06/17 06:35:01;;;;;;;14.52;9.02;;;;;;;-139.48;100.00;61774.03;5094570;28;20046;-70
2021/06/17 06:37:49;;;;;;;16.58;9.48;;;;;;;-139.48;100.00;61774.03;5079055;28;20108;-67
2021/06/17 06:40:33;;;;;;;20.63;9.27;;;;;;;-139.48;100.00;61774.03;5094490;28;20101;-70
2021/06/17 06:43:17;;;;;;;16.85;9.57;;;;;;;-139.48;100.00;61774.03;5093404;28;20069;-70
2021/06/17 06:46:01;;;;;;;17.27;8.98;;;;;;;-139.48;100.00;61774.03;5093294;28;20051;-70
2021/06/17 06:48:45;;;;;;;12.05;8.00;;;;;;;-139.48;100.00;61774.03;5094385;28;20055;-70
2021/06/17 06:51:30;;;;;;;;;;;;;;;-139.48;100.00;61774.03;5093843;28;20047;-70
2021/06/17 06:54:18;;;;;;;15.15;8.40;;;;;;;-139.48;100.00;61774.03;5093226;28;19919;-70
2021/06/17 06:57:02;;;;;;;11.88;8.85;;;;;;;-139.48;100.00;61774.03;5092934;28;20455;-69
2021/06/17 06:59:46;;;;;;;12.73;8.93;;;;;;;-139.48;100.00;61774.03;5093152;28;20073;-69
2021/06/17 07:02:30;;;;;;;12.80;8.85;;;;;;;-139.48;100.00;61774.03;5093073;28;20117;-70
2021/06/17 07:05:14;;;;;;;;;;;;;;;-139.48;100.00;61774.03;5093403;28;20101;-70
2021/06/17 07:07:59;;;;;;;10.63;9.53;;;;;;;-139.48;100.00;61774.03;5093050;28;19919;-70
2021/06/17 07:10:46;;;;;;;12.25;8.27;;;;;;;-139.48;100.00;61774.03;5092992;28;20625;-70
2021/06/17 07:13:30;;;;;;;11.38;8.23;;;;;;;-139.48;100.00;61774.03;5092895;28;20054;-70
2021/06/17 07:16:14;;;;;;;10.20;8.30;;;;;;;-139.48;100.00;61774.03;5092504;28;20043;-69
2021/06/17 07:18:57;;;;;;;12.75;8.35;;;;;;;-139.48;100.00;61774.03;5092861;28;20055;-70
2021/06/17 07:21:41;;;;;;;;;;;;;;;-139.48;100.00;61774.03;5092306;28;20128;-70
2021/06/17 07:24:25;;;;;;;13.67;8.37;;;;;;;-139.48;100.00;61774.03;5093079;28;19919;-70
2021/06/17 07:27:09;;;;;;;;;;;;;;;-139.48;100.00;61774.03;5092791;28;20268;-70
2021/06/17 07:29:53;;;;;;;16.10;8.75;;;;;;;-139.48;100.00;61774.03;5092502;28;20396;-69
2021/06/17 07:32:37;;;;;;;;;;;;;;;-139.48;100.00;61774.03;5093035;28;20550;-70
2021/06/17 07:35:21;;;;;;;12.50;7.65;;;;;;;-139.48;100.00;61774.03;5092580;28;19919;-70
2021/06/17 07:38:05;;;;;;;11.00;7.68;;;;;;;-139.48;100.00;61774.03;5092550;28;20444;-70
2021/06/17 07:40:49;;;;;;;8.60;7.65;;;;;;;-139.48;100.00;61774.03;5092513;28;20413;-70
2021/06/17 07:43:33;;;;;;;10.77;8.63;;;;;;;-139.48;100.00;61774.03;5092262;28;20039;-69
2021/06/17 07:46:17;;;;;;;13.65;8.05;;;;;;;-139.48;100.00;61774.03;5092606;28;20051;-70
2021/06/17 07:49:01;;;;;;;;;;;;;;;-139.48;100.00;61774.03;5078528;28;20121;-70
2021/06/17 07:51:46;;;;;;;14.73;8.90;;;;;;;-139.48;100.00;61774.03;5092345;28;20288;-70
2021/06/17 07:54:29;;;;;;;;;;;;;;;-139.48;100.00;61774.03;5093536;28;20055;-70
2021/06/17 07:57:13;;;;;;;12.85;8.95;;;;;;;-139.48;100.00;61774.03;5092357;28;19919;-70
2021/06/17 07:59:57;;;;;;;10.98;7.35;;;;;;;-139.48;100.00;61774.03;5077695;28;20046;-70
2021/06/17 08:02:41;;;;;;;;;;;;;;;-139.48;100.00;61774.03;5092632;28;20051;-69
2021/06/17 08:05:26;;;;;;;13.52;8.10;;;;;;;-139.48;100.00;61774.03;5077835;28;19918;-68
2021/06/17 08:08:10;;;;;;;10.75;8.27;;;;;;;-139.48;100.00;61774.03;5092136;28;20051;-70
2021/06/17 08:10:54;;;;;;;;;;;;;;;-139.48;100.00;61774.03;5078384;28;20090;-69
2021/06/17 08:13:38;;;;;;;12.65;7.80;;;;;;;-139.48;100.00;61774.03;5092955;28;19967;-70
2021/06/17 08:16:22;;;;;;;8.35;7.43;;;;;;;-139.48;100.00;61774.03;5091649;28;20473;-70
2021/06/17 08:19:06;;;;;;;;;;;;;;;-139.48;100.00;61774.03;5092822;28;20051;-70
2021/06/17 08:21:50;;;;;;;10.27;7.15;;;;;;;-139.48;100.00;61774.03;5077555;28;19954;-70
2021/06/17 08:24:36;;;;;;;14.30;7.65;;;;;;;-139.48;100.00;61774.03;5077778;28;20097;-70
2021/06/17 08:27:21;;;;;;;13.43;7.82;;;;;;;-139.48;100.00;61774.03;5077637;28;20051;-70
2021/06/17 08:30:10;;;;;;;10.95;7.05;;;;;;;-139.48;100.00;61774.03;5092061;28;20469;-70
2021/06/17 08:32:54;;;;;;;18.38;8.18;;;;;;;-139.48;100.00;61774.03;5094742;28;20043;-70
2021/06/17 08:35:38;;;;;;;;;;;;;;;-139.48;100.00;61774.03;5096087;28;20126;-70
2021/06/17 08:38:22;;;;;;;12.15;7.00;;;;;;;-139.48;100.00;61774.03;5095562;28;19919;-70
2021/06/17 08:41:05;;;;;;;;;;;;;;;-139.48;100.00;61774.03;5096472;28;20047;-70
2021/06/17 08:43:53;;;;;;;9.13;7.43;;;;;;;-139.48;100.00;61774.03;5095815;28;19934;-69
2021/06/17 08:46:38;;;;;;;12.05;7.18;;;;;;;-139.48;100.00;61774.03;5095364;28;20043;-69
2021/06/17 08:49:24;;;;;;;9.93;7.50;;;;;;;-139.48;100.00;61774.03;5081324;28;20556;-69
2021/06/17 08:52:08;;;;;;;14.40;7.85;;;;;;;-139.48;100.00;61774.03;5096445;28;20047;-70
2021/06/17 08:55:24;;;;;;;15.93;7.38;;;;;;;-139.48;100.00;61774.03;5095425;28;20491;-70
2021/06/17 08:58:08;;;;;;;10.40;7.75;;;;;;;-139.48;100.00;61774.03;5080825;28;20148;-70
2021/06/17 09:00:52;;;;;;;11.82;7.82;;;;;;;-139.48;100.00;61774.03;5095264;28;20071;-70
2021/06/17 09:03:41;;;;;;;11.82;7.40;;;;;;;-139.48;100.00;61774.03;5080828;28;20108;-70
2021/06/17 09:06:25;;;;;;;10.68;7.53;;;;;;;-139.48;100.00;61774.03;5095950;28;20087;-70
2021/06/17 09:09:09;;;;;;;9.43;7.50;;;;;;;-139.48;100.00;61774.03;5095214;28;20206;-69
2021/06/17 09:11:54;;;;;;;9.20;7.50;;;;;;;-139.48;100.00;61774.03;5080621;28;20097;-70
2021/06/17 09:14:39;;;;;;;8.30;6.93;;;;;;;-139.48;100.00;61774.03;5095091;28;20512;-70
2021/06/17 09:17:23;;;;;;;13.57;7.50;;;;;;;-139.48;100.00;61774.03;5096736;28;20047;-69
2021/06/17 09:20:09;;;;;;;15.93;7.80;;;;;;;-139.48;100.00;61774.03;5094817;28;20107;-69
2021/06/17 09:22:53;;;;;;;13.85;7.63;;;;;;;-139.48;100.00;61774.03;5095047;28;20047;-70
2021/06/17 09:25:50;;;;;;;14.10;7.65;;;;;;;-139.48;100.00;61774.03;5094726;28;20097;-70
2021/06/17 09:31:45;;;;;;;10.38;7.50;;;;;;;-139.48;100.00;61774.03;5094739;28;20537;-70
2021/06/17 09:34:29;;;;;;;13.25;7.78;;;;;;;-139.48;100.00;61774.03;5080544;28;20082;-70
2021/06/17 09:37:36;;;;;;;11.02;7.45;;;;;;;-139.48;100.00;61774.03;5094331;28;20051;-69
2021/06/17 09:40:21;;;;;;;9.77;8.18;;;;;;;-139.48;100.00;61774.03;5094384;28;20047;-69
2021/06/17 09:43:18;;;;;;;10.55;7.38;;;;;;;-139.48;100.00;61774.03;5095585;28;20408;-70
2021/06/17 09:46:06;;;;;;;9.20;7.93;;;;;;;-139.48;100.00;61774.03;5093935;28;20047;-69
2021/06/17 09:48:51;;;;;;;11.18;8.50;;;;;;;-139.48;100.00;61774.03;5095751;28;20458;-69
2021/06/17 09:51:43;;;;;;;17.45;7.82;;;;;;;-139.48;100.00;61774.03;5080316;28;20104;-70
2021/06/17 09:54:32;;;;;;;12.57;7.55;;;;;;;-139.48;100.00;61774.03;5095096;28;20063;-70
2021/06/17 09:57:20;;;;;;;11.80;8.18;;;;;;;-139.48;100.00;61774.03;5094945;28;20408;-69
2021/06/17 10:00:12;;;;;;;12.05;7.57;;;;;;;-139.48;100.00;61774.03;5094298;28;20047;-70
2021/06/17 10:03:12;;;;;;;8.90;7.93;;;;;;;-139.48;100.00;61774.03;5093970;28;20508;-70
2021/06/17 10:05:57;;;;;;;10.73;7.80;;;;;;;-139.48;100.00;61774.03;5079458;28;20051;-70
2021/06/17 10:08:41;;;;;;;9.57;7.63;;;;;;;-139.48;100.00;61774.03;5095137;28;20093;-70
2021/06/17 10:11:25;;;;;;;13.18;8.55;;;;;;;-139.48;100.00;61774.03;5079866;28;20408;-70
2021/06/17 10:14:09;;;;;;;9.32;7.68;;;;;;;-139.48;100.00;61774.03;5093947;28;20108;-69
2021/06/17 10:16:54;;;;;;;11.48;7.97;;;;;;;-139.48;100.00;61774.03;5093750;28;20063;-70
2021/06/17 10:19:38;;;;;;;11.40;7.70;;;;;;;-139.48;100.00;61774.03;5093673;28;20081;-70
2021/06/17 10:22:26;;;;;;;9.48;8.18;;;;;;;-139.48;100.00;61774.03;5079713;28;20123;-70
2021/06/17 10:25:28;;;;;;;10.50;7.80;;;;;;;-139.48;100.00;61774.03;5093719;28;20134;-71
2021/06/17 10:28:13;;;;;;;9.60;6.88;;;;;;;-139.48;100.00;61774.03;5093758;28;20046;-70
2021/06/17 10:30:57;;;;;;;10.30;8.25;;;;;;;-139.48;100.00;61774.03;5079240;28;20157;-70
2021/06/17 10:33:42;;;;;;;8.70;7.40;;;;;;;-139.48;100.00;61774.03;5079368;28;20109;-70
2021/06/17 10:36:35;;;;;;;13.80;7.18;;;;;;;-139.48;100.00;61774.03;5093579;28;20051;-70
2021/06/17 10:39:21;;;;;;;10.77;7.13;;;;;;;-139.48;100.00;61774.03;5094575;28;20051;-69
2021/06/17 10:42:05;;;;;;;9.98;6.68;;;;;;;-139.48;100.00;61774.03;5093656;28;20046;-69
2021/06/17 10:44:55;;;;;;;7.85;7.07;;;;;;;-139.48;100.00;61774.03;5094668;28;20050;-69
2021/06/17 10:47:51;;;;;;;10.45;6.53;;;;;;;-139.48;100.00;61774.03;5093409;28;20069;-69
2021/06/17 10:50:52;;;;;;;10.07;6.82;;;;;;;-139.48;100.00;61774.03;5094532;28;20096;-68
2021/06/17 10:53:35;;;;;;;9.63;6.43;;;;;;;-139.48;100.00;61774.03;5094370;28;20051;-69
2021/06/17 10:56:25;;;;;;;7.97;6.95;;;;;;;-139.48;100.00;61774.03;5094201;28;20431;-69
2021/06/17 10:59:11;;;;;;;9.20;6.50;;;;;;;-139.48;100.00;61774.03;5079316;28;20466;-69
2021/06/17 11:02:08;;;;;;;8.48;6.22;;;;;;;-139.48;100.00;61774.03;5079233;28;20476;-69
2021/06/17 11:04:52;;;;;;;9.38;6.95;;;;;;;-139.48;100.00;61774.03;5092992;28;20131;-69
2021/06/17 11:07:36;;;;;;;14.15;6.68;;;;;;;-139.48;100.00;61774.03;5093297;28;20050;-69
2021/06/17 11:10:42;;;;;;;10.32;6.72;;;;;;;-139.48;100.00;61774.03;5093146;28;20495;-69
2021/06/17 11:13:35;;;;;;;8.32;6.97;;;;;;;-139.48;100.00;61774.03;5094015;28;20097;-69
2021/06/17 11:16:19;;;;;;;8.32;7.00;;;;;;;-139.48;100.00;61774.03;5092872;28;20077;-69
2021/06/17 11:19:08;;;;;;;15.07;7.50;;;;;;;-139.48;100.00;61774.03;5094295;28;20047;-69
2021/06/17 11:21:52;;;;;;;11.60;6.90;;;;;;;-139.48;100.00;61774.03;5093103;28;20046;-69
2021/06/17 11:24:36;;;;;;;8.25;7.40;;;;;;;-139.48;100.00;61774.03;5078331;28;20136;-69
2021/06/17 11:27:28;;;;;;;8.43;7.63;;;;;;;-139.48;100.00;61774.03;5093055;28;20047;-69
2021/06/17 11:30:13;;;;;;;8.18;7.45;;;;;;;-139.48;100.00;61774.03;5093204;28;20058;-69
2021/06/17 11:33:17;;;;;;;8.63;7.75;;;;;;;-139.48;100.00;61774.03;5092667;28;20131;-68
2021/06/17 11:36:06;;;;;;;8.45;7.35;;;;;;;-139.48;100.00;61774.03;5093453;28;20043;-68
2021/06/17 11:38:51;;;;;;;10.77;7.72;;;;;;;-139.48;100.00;61774.03;5078896;28;20101;-69
2021/06/17 11:41:36;;;;;;;10.70;8.13;;;;;;;-139.48;100.00;61774.03;5078420;28;20123;-69
2021/06/17 11:44:26;;;;;;;9.25;7.75;;;;;;;-139.48;100.00;61774.03;5078572;28;20547;-69
2021/06/17 11:47:14;;;;;;;8.15;7.45;;;;;;;-139.48;100.00;61774.03;5092385;28;20058;-69
2021/06/17 11:50:05;;;;;;;8.98;8.07;;;;;;;-139.48;100.00;61774.03;5078866;28;20108;-69
2021/06/17 11:52:49;;;;;;;9.88;7.45;;;;;;;-139.48;100.00;61774.03;5092536;28;20550;-69
2021/06/17 11:55:44;;;;;;;9.65;7.85;;;;;;;-139.48;100.00;61774.03;5092395;28;20055;-69
2021/06/17 11:58:31;;;;;;;9.10;7.63;;;;;;;-139.48;100.00;61774.03;5092631;28;20482;-69
2021/06/17 12:01:16;;;;;;;8.38;7.50;;;;;;;-139.48;100.00;61774.03;5092347;28;20144;-68
2021/06/17 12:04:02;;;;;;;8.20;7.30;;;;;;;-139.48;100.00;61774.03;5092725;28;20086;-70
2021/06/17 12:07:02;;;;;;;11.07;8.05;;;;;;;-139.48;100.00;61774.03;5093203;28;20047;-70
2021/06/17 12:09:46;;;;;;;8.23;7.50;;;;;;;-139.48;100.00;61774.03;5096481;28;20046;-69
2021/06/17 12:12:31;;;;;;;9.38;8.00;;;;;;;-139.48;100.00;61774.03;5096800;28;20470;-70
2021/06/17 12:15:17;;;;;;;8.13;7.53;;;;;;;-139.48;100.00;61774.03;5096706;28;20062;-70
2021/06/17 12:18:04;;;;;;;9.60;7.57;;;;;;;-139.48;100.00;61774.03;5097693;28;20043;-70
2021/06/17 12:20:49;;;;;;;9.15;7.90;;;;;;;-139.48;100.00;61774.03;5097147;28;20182;-70
2021/06/17 12:23:33;;;;;;;10.38;8.02;;;;;;;-139.48;100.00;61774.03;5082362;28;20047;-70
2021/06/17 12:26:18;;;;;;;8.77;7.72;;;;;;;-139.48;100.00;61774.03;5096211;28;20046;-70
2021/06/17 12:29:10;;;;;;;9.23;8.32;;;;;;;-139.48;100.00;61774.03;5096372;28;20042;-69
2021/06/17 12:31:55;;;;;;;7.82;7.05;;;;;;;-139.48;100.00;61774.03;5096008;28;20096;-69
2021/06/17 12:34:44;;;;;;;9.07;8.20;;;;;;;-139.48;100.00;61774.03;5082334;28;20042;-68
2021/06/17 12:37:28;;;;;;;9.95;7.88;;;;;;;-139.48;100.00;61774.03;5096349;28;20116;-69
2021/06/17 12:40:12;;;;;;;9.10;7.65;;;;;;;-139.48;100.00;61774.03;5097022;28;20055;-70
2021/06/17 12:43:17;;;;;;;8.40;7.60;;;;;;;-139.48;100.00;61774.03;5081465;28;20126;-68
2021/06/17 12:46:04;;;;;;;8.77;7.97;;;;;;;-139.48;100.00;61774.03;5081226;28;20054;-68